sensor_id;sensor_type;location;lat;lon;timestamp;temperature;humidity
16140;DHT22;8175;49.326;12.690;2022-09-09T00:01:54;13.20;99.90
16140;DHT22;8175;49.326;12.690;2022-09-09T00:04:28;13.20;99.90
16140;DHT22;8175;49.326;12.690;2022-09-09T00:09:30;13.20;99.90
16140;DHT22;8175;49.326;12.690;2022-09-09T00:17:37;13.00;99.90
16140;DHT22;8175;49.326;12.690;2022-09-09T00:20:32;12.90;99.90
16140;DHT22;8175;49.326;12.690;2022-09-09T00:23:16;12.90;99.90
16140;DHT22;8175;49.326;12.690;2022-09-09T00:26:26;12.80;99.90
16140;DHT22;8175;49.326;12.690;2022-09-09T00:29:00;12.70;99.90
16140;DHT22;8175;49.326;12.690;2022-09-09T00:31:31;12.60;99.90
16140;DHT22;8175;49.326;12.690;2022-09-09T00:34:18;12.70;99.90
16140;DHT22;8175;49.326;12.690;2022-09-09T00:36:45;12.80;99.90
16140;DHT22;8175;49.326;12.690;2022-09-09T00:39:31;12.80;99.90
16140;DHT22;8175;49.326;12.690;2022-09-09T00:47:51;13.20;99.90
16140;DHT22;8175;49.326;12.690;2022-09-09T00:50:35;13.40;99.90
16140;DHT22;8175;49.326;12.690;2022-09-09T00:55:49;13.30;99.90
16140;DHT22;8175;49.326;12.690;2022-09-09T00:58:19;13.40;99.90
16140;DHT22;8175;49.326;12.690;2022-09-09T01:00:50;13.40;99.90
16140;DHT22;8175;49.326;12.690;2022-09-09T01:11:20;13.00;99.90
16140;DHT22;8175;49.326;12.690;2022-09-09T01:13:56;12.90;99.90
16140;DHT22;8175;49.326;12.690;2022-09-09T01:16:25;12.80;99.90
16140;DHT22;8175;49.326;12.690;2022-09-09T01:18:53;12.70;99.90
16140;DHT22;8175;49.326;12.690;2022-09-09T01:26:43;12.70;99.90
16140;DHT22;8175;49.326;12.690;2022-09-09T01:29:11;12.70;99.90
16140;DHT22;8175;49.326;12.690;2022-09-09T01:31:52;12.80;99.90
16140;DHT22;8175;49.326;12.690;2022-09-09T01:34:19;12.90;99.90
16140;DHT22;8175;49.326;12.690;2022-09-09T01:36:57;12.70;99.90
16140;DHT22;8175;49.326;12.690;2022-09-09T01:39:23;12.80;99.90
16140;DHT22;8175;49.326;12.690;2022-09-09T01:41:49;12.90;99.90
16140;DHT22;8175;49.326;12.690;2022-09-09T01:44:15;12.90;99.90
16140;DHT22;8175;49.326;12.690;2022-09-09T01:46:41;13.00;99.90
16140;DHT22;8175;49.326;12.690;2022-09-09T01:49:07;13.10;99.90
16140;DHT22;8175;49.326;12.690;2022-09-09T01:51:34;13.20;99.90
16140;DHT22;8175;49.326;12.690;2022-09-09T01:54:02;13.20;99.90
16140;DHT22;8175;49.326;12.690;2022-09-09T02:00:12;13.20;99.90
16140;DHT22;8175;49.326;12.690;2022-09-09T02:08:50;13.00;99.90
16140;DHT22;8175;49.326;12.690;2022-09-09T02:11:22;12.90;99.90
16140;DHT22;8175;49.326;12.690;2022-09-09T02:13:51;13.10;99.90
16140;DHT22;8175;49.326;12.690;2022-09-09T02:16:34;13.10;99.90
16140;DHT22;8175;49.326;12.690;2022-09-09T02:19:11;13.10;99.90
16140;DHT22;8175;49.326;12.690;2022-09-09T02:21:40;13.00;99.90
16140;DHT22;8175;49.326;12.690;2022-09-09T02:24:07;13.00;99.90
16140;DHT22;8175;49.326;12.690;2022-09-09T02:26:39;12.90;99.90
16140;DHT22;8175;49.326;12.690;2022-09-09T02:29:10;12.80;99.90
16140;DHT22;8175;49.326;12.690;2022-09-09T02:31:38;12.70;99.90
16140;DHT22;8175;49.326;12.690;2022-09-09T02:34:05;12.50;99.90
16140;DHT22;8175;49.326;12.690;2022-09-09T02:36:36;12.70;99.90
16140;DHT22;8175;49.326;12.690;2022-09-09T02:39:06;12.80;99.90
16140;DHT22;8175;49.326;12.690;2022-09-09T02:41:34;13.00;99.90
16140;DHT22;8175;49.326;12.690;2022-09-09T02:44:01;13.10;99.90
16140;DHT22;8175;49.326;12.690;2022-09-09T02:52:06;12.90;99.90
16140;DHT22;8175;49.326;12.690;2022-09-09T02:54:35;12.70;99.90
16140;DHT22;8175;49.326;12.690;2022-09-09T02:57:11;12.60;99.90
16140;DHT22;8175;49.326;12.690;2022-09-09T02:59:38;12.50;99.90
16140;DHT22;8175;49.326;12.690;2022-09-09T03:02:04;12.40;99.90
16140;DHT22;8175;49.326;12.690;2022-09-09T03:04:29;12.30;99.90
16140;DHT22;8175;49.326;12.690;2022-09-09T03:06:57;12.30;99.90
16140;DHT22;8175;49.326;12.690;2022-09-09T03:09:23;12.40;99.90
16140;DHT22;8175;49.326;12.690;2022-09-09T03:11:49;12.40;99.90
16140;DHT22;8175;49.326;12.690;2022-09-09T03:14:15;12.60;99.90
16140;DHT22;8175;49.326;12.690;2022-09-09T03:16:41;12.70;99.90
16140;DHT22;8175;49.326;12.690;2022-09-09T03:19:08;12.60;99.90
16140;DHT22;8175;49.326;12.690;2022-09-09T03:21:34;12.70;99.90
16140;DHT22;8175;49.326;12.690;2022-09-09T03:24:00;12.80;99.90
16140;DHT22;8175;49.326;12.690;2022-09-09T03:26:25;12.80;99.90
16140;DHT22;8175;49.326;12.690;2022-09-09T03:28:51;12.90;99.90
16140;DHT22;8175;49.326;12.690;2022-09-09T03:31:17;12.90;99.90
16140;DHT22;8175;49.326;12.690;2022-09-09T03:33:44;12.90;99.90
16140;DHT22;8175;49.326;12.690;2022-09-09T03:36:10;13.00;99.90
16140;DHT22;8175;49.326;12.690;2022-09-09T03:38:36;13.00;99.90
16140;DHT22;8175;49.326;12.690;2022-09-09T03:41:02;13.00;99.90
16140;DHT22;8175;49.326;12.690;2022-09-09T03:43:28;13.00;99.90
16140;DHT22;8175;49.326;12.690;2022-09-09T03:45:55;13.00;99.90
16140;DHT22;8175;49.326;12.690;2022-09-09T03:48:24;13.00;99.90
16140;DHT22;8175;49.326;12.690;2022-09-09T03:50:52;13.00;99.90
16140;DHT22;8175;49.326;12.690;2022-09-09T03:53:21;13.00;99.90
16140;DHT22;8175;49.326;12.690;2022-09-09T03:55:52;12.90;99.90
16140;DHT22;8175;49.326;12.690;2022-09-09T03:58:20;12.90;99.90
16140;DHT22;8175;49.326;12.690;2022-09-09T04:00:57;13.00;99.90
16140;DHT22;8175;49.326;12.690;2022-09-09T04:03:24;13.00;99.90
16140;DHT22;8175;49.326;12.690;2022-09-09T04:05:51;12.90;99.90
16140;DHT22;8175;49.326;12.690;2022-09-09T04:08:18;12.60;99.90
16140;DHT22;8175;49.326;12.690;2022-09-09T04:10:48;12.40;99.90
16140;DHT22;8175;49.326;12.690;2022-09-09T04:13:15;12.20;99.90
16140;DHT22;8175;49.326;12.690;2022-09-09T04:15:44;12.20;99.90
16140;DHT22;8175;49.326;12.690;2022-09-09T04:18:10;12.10;99.90
16140;DHT22;8175;49.326;12.690;2022-09-09T04:20:37;12.00;99.90
16140;DHT22;8175;49.326;12.690;2022-09-09T04:23:03;12.00;99.90
16140;DHT22;8175;49.326;12.690;2022-09-09T04:25:29;11.90;99.90
16140;DHT22;8175;49.326;12.690;2022-09-09T04:27:55;11.70;99.90
16140;DHT22;8175;49.326;12.690;2022-09-09T04:30:22;11.60;99.90
16140;DHT22;8175;49.326;12.690;2022-09-09T04:32:47;11.60;99.90
16140;DHT22;8175;49.326;12.690;2022-09-09T04:35:13;11.50;99.90
16140;DHT22;8175;49.326;12.690;2022-09-09T04:37:39;11.50;99.90
16140;DHT22;8175;49.326;12.690;2022-09-09T04:40:05;11.50;99.90
16140;DHT22;8175;49.326;12.690;2022-09-09T04:42:38;11.50;99.90
16140;DHT22;8175;49.326;12.690;2022-09-09T04:45:04;11.40;99.90
16140;DHT22;8175;49.326;12.690;2022-09-09T04:47:30;11.30;99.90
16140;DHT22;8175;49.326;12.690;2022-09-09T04:49:56;11.30;99.90
16140;DHT22;8175;49.326;12.690;2022-09-09T04:52:22;11.40;99.90
16140;DHT22;8175;49.326;12.690;2022-09-09T04:54:47;11.40;99.90
16140;DHT22;8175;49.326;12.690;2022-09-09T04:57:13;11.40;99.90
16140;DHT22;8175;49.326;12.690;2022-09-09T04:59:39;11.50;99.90
16140;DHT22;8175;49.326;12.690;2022-09-09T05:02:05;11.40;99.90
16140;DHT22;8175;49.326;12.690;2022-09-09T05:04:31;11.50;99.90
16140;DHT22;8175;49.326;12.690;2022-09-09T05:06:57;11.50;99.90
16140;DHT22;8175;49.326;12.690;2022-09-09T05:09:22;11.50;99.90
16140;DHT22;8175;49.326;12.690;2022-09-09T05:11:48;11.50;99.90
16140;DHT22;8175;49.326;12.690;2022-09-09T05:14:14;11.40;99.90
16140;DHT22;8175;49.326;12.690;2022-09-09T05:16:40;11.40;99.90
16140;DHT22;8175;49.326;12.690;2022-09-09T05:19:06;11.50;99.90
16140;DHT22;8175;49.326;12.690;2022-09-09T05:21:33;11.60;99.90
16140;DHT22;8175;49.326;12.690;2022-09-09T05:23:59;11.50;99.90
16140;DHT22;8175;49.326;12.690;2022-09-09T05:26:26;11.60;99.90
16140;DHT22;8175;49.326;12.690;2022-09-09T05:28:51;11.70;99.90
16140;DHT22;8175;49.326;12.690;2022-09-09T05:31:17;11.80;99.90
16140;DHT22;8175;49.326;12.690;2022-09-09T05:33:45;11.80;99.90
16140;DHT22;8175;49.326;12.690;2022-09-09T05:36:16;11.90;99.90
16140;DHT22;8175;49.326;12.690;2022-09-09T05:38:43;12.00;99.90
16140;DHT22;8175;49.326;12.690;2022-09-09T05:41:10;12.10;99.90
16140;DHT22;8175;49.326;12.690;2022-09-09T05:43:36;12.10;99.90
16140;DHT22;8175;49.326;12.690;2022-09-09T05:46:06;12.20;99.90
16140;DHT22;8175;49.326;12.690;2022-09-09T05:48:38;12.30;99.90
16140;DHT22;8175;49.326;12.690;2022-09-09T05:51:05;12.50;99.90
16140;DHT22;8175;49.326;12.690;2022-09-09T05:53:32;12.60;99.90
16140;DHT22;8175;49.326;12.690;2022-09-09T05:56:20;12.80;99.90
16140;DHT22;8175;49.326;12.690;2022-09-09T05:58:47;13.00;99.90
16140;DHT22;8175;49.326;12.690;2022-09-09T06:01:15;13.30;99.90
16140;DHT22;8175;49.326;12.690;2022-09-09T06:03:43;13.60;99.90
16140;DHT22;8175;49.326;12.690;2022-09-09T06:06:15;13.80;99.90
16140;DHT22;8175;49.326;12.690;2022-09-09T06:08:43;13.90;99.90
16140;DHT22;8175;49.326;12.690;2022-09-09T06:13:37;14.30;99.90
16140;DHT22;8175;49.326;12.690;2022-09-09T06:16:05;14.40;99.90
16140;DHT22;8175;49.326;12.690;2022-09-09T06:18:32;14.50;99.90
16140;DHT22;8175;49.326;12.690;2022-09-09T06:21:00;14.60;99.90
16140;DHT22;8175;49.326;12.690;2022-09-09T06:23:27;14.80;99.90
16140;DHT22;8175;49.326;12.690;2022-09-09T06:26:17;14.80;99.90
16140;DHT22;8175;49.326;12.690;2022-09-09T06:28:44;14.70;99.90
16140;DHT22;8175;49.326;12.690;2022-09-09T06:31:12;14.80;99.90
16140;DHT22;8175;49.326;12.690;2022-09-09T06:33:40;14.90;99.90
16140;DHT22;8175;49.326;12.690;2022-09-09T06:36:14;15.00;99.90
16140;DHT22;8175;49.326;12.690;2022-09-09T06:38:41;15.00;99.90
16140;DHT22;8175;49.326;12.690;2022-09-09T06:41:08;15.00;99.90
16140;DHT22;8175;49.326;12.690;2022-09-09T06:43:34;15.20;99.90
16140;DHT22;8175;49.326;12.690;2022-09-09T06:46:12;15.30;99.90
16140;DHT22;8175;49.326;12.690;2022-09-09T06:48:39;15.50;99.90
16140;DHT22;8175;49.326;12.690;2022-09-09T06:51:11;15.60;99.90
16140;DHT22;8175;49.326;12.690;2022-09-09T06:53:38;15.80;99.90
16140;DHT22;8175;49.326;12.690;2022-09-09T06:58:42;15.70;99.90
16140;DHT22;8175;49.326;12.690;2022-09-09T07:01:11;15.60;99.90
16140;DHT22;8175;49.326;12.690;2022-09-09T07:03:40;15.60;99.90
16140;DHT22;8175;49.326;12.690;2022-09-09T07:06:09;15.60;99.90
16140;DHT22;8175;49.326;12.690;2022-09-09T07:08:39;15.50;99.90
16140;DHT22;8175;49.326;12.690;2022-09-09T07:11:07;15.60;99.90
16140;DHT22;8175;49.326;12.690;2022-09-09T07:13:34;15.80;99.90
16140;DHT22;8175;49.326;12.690;2022-09-09T07:16:19;16.30;99.90
16140;DHT22;8175;49.326;12.690;2022-09-09T07:18:45;16.80;99.90
16140;DHT22;8175;49.326;12.690;2022-09-09T07:21:13;16.80;99.90
16140;DHT22;8175;49.326;12.690;2022-09-09T07:23:39;16.70;99.90
16140;DHT22;8175;49.326;12.690;2022-09-09T07:26:14;16.50;99.90
16140;DHT22;8175;49.326;12.690;2022-09-09T07:28:40;16.50;99.90
16140;DHT22;8175;49.326;12.690;2022-09-09T07:31:08;16.70;99.90
16140;DHT22;8175;49.326;12.690;2022-09-09T07:33:39;16.90;99.90
16140;DHT22;8175;49.326;12.690;2022-09-09T07:36:16;16.70;99.90
16140;DHT22;8175;49.326;12.690;2022-09-09T07:38:47;16.90;99.90
16140;DHT22;8175;49.326;12.690;2022-09-09T07:41:37;18.20;99.90
16140;DHT22;8175;49.326;12.690;2022-09-09T07:44:11;20.00;99.90
16140;DHT22;8175;49.326;12.690;2022-09-09T07:46:38;20.90;99.90
16140;DHT22;8175;49.326;12.690;2022-09-09T07:49:05;21.70;99.90
16140;DHT22;8175;49.326;12.690;2022-09-09T07:51:35;22.20;99.90
16140;DHT22;8175;49.326;12.690;2022-09-09T07:54:07;22.60;99.90
16140;DHT22;8175;49.326;12.690;2022-09-09T07:56:34;22.50;99.90
16140;DHT22;8175;49.326;12.690;2022-09-09T07:59:01;21.80;99.90
16140;DHT22;8175;49.326;12.690;2022-09-09T08:01:35;21.60;99.90
16140;DHT22;8175;49.326;12.690;2022-09-09T08:04:06;21.70;99.90
16140;DHT22;8175;49.326;12.690;2022-09-09T08:06:35;22.00;99.90
16140;DHT22;8175;49.326;12.690;2022-09-09T08:09:02;22.70;99.90
16140;DHT22;8175;49.326;12.690;2022-09-09T08:11:29;23.50;99.90
16140;DHT22;8175;49.326;12.690;2022-09-09T08:13:56;23.90;99.90
16140;DHT22;8175;49.326;12.690;2022-09-09T08:16:24;23.60;99.90
16140;DHT22;8175;49.326;12.690;2022-09-09T08:18:51;22.10;99.90
16140;DHT22;8175;49.326;12.690;2022-09-09T08:21:29;21.10;99.90
16140;DHT22;8175;49.326;12.690;2022-09-09T08:23:56;20.30;99.90
16140;DHT22;8175;49.326;12.690;2022-09-09T08:26:25;19.80;99.90
16140;DHT22;8175;49.326;12.690;2022-09-09T08:28:52;19.50;99.90
16140;DHT22;8175;49.326;12.690;2022-09-09T08:31:25;19.50;99.90
16140;DHT22;8175;49.326;12.690;2022-09-09T08:33:54;20.50;99.90
16140;DHT22;8175;49.326;12.690;2022-09-09T08:36:22;21.20;99.90
16140;DHT22;8175;49.326;12.690;2022-09-09T08:38:54;21.80;99.90
16140;DHT22;8175;49.326;12.690;2022-09-09T08:44:28;20.50;99.90
16140;DHT22;8175;49.326;12.690;2022-09-09T08:53:10;19.50;99.90
16140;DHT22;8175;49.326;12.690;2022-09-09T08:55:42;19.40;99.90
16140;DHT22;8175;49.326;12.690;2022-09-09T08:58:32;19.30;99.90
16140;DHT22;8175;49.326;12.690;2022-09-09T09:03:48;19.20;99.90
16140;DHT22;8175;49.326;12.690;2022-09-09T09:09:33;18.10;99.90
16140;DHT22;8175;49.326;12.690;2022-09-09T09:12:11;18.00;99.90
16140;DHT22;8175;49.326;12.690;2022-09-09T09:14:40;17.90;99.90
16140;DHT22;8175;49.326;12.690;2022-09-09T09:17:13;17.70;99.90
16140;DHT22;8175;49.326;12.690;2022-09-09T09:19:41;17.30;99.90
16140;DHT22;8175;49.326;12.690;2022-09-09T09:25:11;17.10;99.90
16140;DHT22;8175;49.326;12.690;2022-09-09T09:30:25;16.80;99.90
16140;DHT22;8175;49.326;12.690;2022-09-09T09:33:02;16.60;99.90
16140;DHT22;8175;49.326;12.690;2022-09-09T09:35:30;16.50;99.90
16140;DHT22;8175;49.326;12.690;2022-09-09T09:37:56;16.30;99.90
16140;DHT22;8175;49.326;12.690;2022-09-09T09:40:22;16.30;99.90
16140;DHT22;8175;49.326;12.690;2022-09-09T09:42:54;16.30;99.90
16140;DHT22;8175;49.326;12.690;2022-09-09T09:45:42;16.50;99.90
16140;DHT22;8175;49.326;12.690;2022-09-09T09:48:12;16.60;99.90
16140;DHT22;8175;49.326;12.690;2022-09-09T09:50:55;16.70;99.90
16140;DHT22;8175;49.326;12.690;2022-09-09T09:53:27;16.70;99.90
16140;DHT22;8175;49.326;12.690;2022-09-09T09:56:13;16.60;99.90
16140;DHT22;8175;49.326;12.690;2022-09-09T10:01:22;16.40;99.90
16140;DHT22;8175;49.326;12.690;2022-09-09T10:03:54;16.40;99.90
16140;DHT22;8175;49.326;12.690;2022-09-09T10:06:31;16.40;99.90
16140;DHT22;8175;49.326;12.690;2022-09-09T10:08:59;16.30;99.90
16140;DHT22;8175;49.326;12.690;2022-09-09T10:14:21;16.00;99.90
16140;DHT22;8175;49.326;12.690;2022-09-09T10:19:40;16.40;99.90
16140;DHT22;8175;49.326;12.690;2022-09-09T10:22:26;16.60;99.90
16140;DHT22;8175;49.326;12.690;2022-09-09T10:28:00;16.40;99.90
16140;DHT22;8175;49.326;12.690;2022-09-09T10:30:58;16.30;99.90
16140;DHT22;8175;49.326;12.690;2022-09-09T10:41:44;18.00;99.90
16140;DHT22;8175;49.326;12.690;2022-09-09T10:47:15;18.80;99.90
16140;DHT22;8175;49.326;12.690;2022-09-09T10:52:45;19.30;99.90
16140;DHT22;8175;49.326;12.690;2022-09-09T10:55:16;19.20;99.90
16140;DHT22;8175;49.326;12.690;2022-09-09T10:57:51;19.30;99.90
16140;DHT22;8175;49.326;12.690;2022-09-09T11:00:21;19.50;99.90
16140;DHT22;8175;49.326;12.690;2022-09-09T11:03:02;19.60;99.90
16140;DHT22;8175;49.326;12.690;2022-09-09T11:05:46;19.70;99.90
16140;DHT22;8175;49.326;12.690;2022-09-09T11:08:18;19.70;99.90
16140;DHT22;8175;49.326;12.690;2022-09-09T11:10:51;20.20;99.90
16140;DHT22;8175;49.326;12.690;2022-09-09T11:13:53;20.90;99.90
16140;DHT22;8175;49.326;12.690;2022-09-09T11:16:43;21.70;99.90
16140;DHT22;8175;49.326;12.690;2022-09-09T11:22:04;23.40;99.90
16140;DHT22;8175;49.326;12.690;2022-09-09T11:27:31;25.90;99.90
16140;DHT22;8175;49.326;12.690;2022-09-09T11:30:25;24.40;99.90
16140;DHT22;8175;49.326;12.690;2022-09-09T11:38:52;21.80;99.90
16140;DHT22;8175;49.326;12.690;2022-09-09T11:41:19;21.30;99.90
16140;DHT22;8175;49.326;12.690;2022-09-09T11:43:55;20.90;99.90
16140;DHT22;8175;49.326;12.690;2022-09-09T11:46:23;20.50;99.90
16140;DHT22;8175;49.326;12.690;2022-09-09T11:49:01;20.30;99.90
16140;DHT22;8175;49.326;12.690;2022-09-09T11:51:29;20.30;99.90
16140;DHT22;8175;49.326;12.690;2022-09-09T11:56:42;20.90;99.90
16140;DHT22;8175;49.326;12.690;2022-09-09T11:59:22;20.70;99.90
16140;DHT22;8175;49.326;12.690;2022-09-09T12:17:27;21.30;99.90
16140;DHT22;8175;49.326;12.690;2022-09-09T12:33:12;22.70;99.90
16140;DHT22;8175;49.326;12.690;2022-09-09T12:35:42;23.20;99.90
16140;DHT22;8175;49.326;12.690;2022-09-09T12:38:15;23.50;99.90
16140;DHT22;8175;49.326;12.690;2022-09-09T12:40:57;23.80;99.90
16140;DHT22;8175;49.326;12.690;2022-09-09T12:43:25;23.50;99.90
16140;DHT22;8175;49.326;12.690;2022-09-09T12:45:57;23.60;99.90
16140;DHT22;8175;49.326;12.690;2022-09-09T12:48:49;23.70;99.90
16140;DHT22;8175;49.326;12.690;2022-09-09T12:51:29;24.10;99.90
16140;DHT22;8175;49.326;12.690;2022-09-09T12:53:56;24.20;99.90
16140;DHT22;8175;49.326;12.690;2022-09-09T12:56:24;24.00;99.90
16140;DHT22;8175;49.326;12.690;2022-09-09T12:58:53;24.50;99.90
16140;DHT22;8175;49.326;12.690;2022-09-09T13:01:30;25.10;99.90
16140;DHT22;8175;49.326;12.690;2022-09-09T13:03:57;25.10;99.90
16140;DHT22;8175;49.326;12.690;2022-09-09T13:06:30;24.60;99.90
16140;DHT22;8175;49.326;12.690;2022-09-09T13:08:58;23.60;99.90
16140;DHT22;8175;49.326;12.690;2022-09-09T13:12:10;23.30;99.90
16140;DHT22;8175;49.326;12.690;2022-09-09T13:14:19;23.50;99.90
16140;DHT22;8175;49.326;12.690;2022-09-09T13:16:57;22.30;99.90
16140;DHT22;8175;49.326;12.690;2022-09-09T13:19:23;21.90;99.90
16140;DHT22;8175;49.326;12.690;2022-09-09T13:21:54;22.50;99.90
16140;DHT22;8175;49.326;12.690;2022-09-09T13:24:32;22.80;99.90
16140;DHT22;8175;49.326;12.690;2022-09-09T13:29:54;22.50;99.90
16140;DHT22;8175;49.326;12.690;2022-09-09T13:32:24;22.50;99.90
16140;DHT22;8175;49.326;12.690;2022-09-09T13:34:58;22.60;99.90
16140;DHT22;8175;49.326;12.690;2022-09-09T13:37:38;23.30;99.90
16140;DHT22;8175;49.326;12.690;2022-09-09T13:40:06;23.30;99.90
16140;DHT22;8175;49.326;12.690;2022-09-09T13:42:34;23.20;99.90
16140;DHT22;8175;49.326;12.690;2022-09-09T13:45:03;23.40;99.90
16140;DHT22;8175;49.326;12.690;2022-09-09T13:47:34;23.80;99.90
16140;DHT22;8175;49.326;12.690;2022-09-09T13:52:48;22.40;99.90
16140;DHT22;8175;49.326;12.690;2022-09-09T13:55:15;21.90;99.90
16140;DHT22;8175;49.326;12.690;2022-09-09T13:57:51;22.40;99.90
16140;DHT22;8175;49.326;12.690;2022-09-09T14:00:17;22.50;99.90
16140;DHT22;8175;49.326;12.690;2022-09-09T14:02:43;22.50;99.90
16140;DHT22;8175;49.326;12.690;2022-09-09T14:05:09;22.70;99.90
16140;DHT22;8175;49.326;12.690;2022-09-09T14:07:38;22.80;99.90
16140;DHT22;8175;49.326;12.690;2022-09-09T14:10:05;22.80;99.90
16140;DHT22;8175;49.326;12.690;2022-09-09T14:12:30;22.80;99.90
16140;DHT22;8175;49.326;12.690;2022-09-09T14:14:56;23.00;99.90
16140;DHT22;8175;49.326;12.690;2022-09-09T14:17:22;22.80;99.90
16140;DHT22;8175;49.326;12.690;2022-09-09T14:19:48;22.30;99.90
16140;DHT22;8175;49.326;12.690;2022-09-09T14:22:14;22.20;99.90
16140;DHT22;8175;49.326;12.690;2022-09-09T14:24:39;21.50;99.90
16140;DHT22;8175;49.326;12.690;2022-09-09T14:27:06;20.20;99.90
16140;DHT22;8175;49.326;12.690;2022-09-09T14:29:32;19.60;99.90
16140;DHT22;8175;49.326;12.690;2022-09-09T14:31:58;20.20;99.90
16140;DHT22;8175;49.326;12.690;2022-09-09T14:34:26;20.90;99.90
16140;DHT22;8175;49.326;12.690;2022-09-09T14:36:52;21.70;99.90
16140;DHT22;8175;49.326;12.690;2022-09-09T14:39:17;22.10;99.90
16140;DHT22;8175;49.326;12.690;2022-09-09T14:41:43;21.70;99.90
16140;DHT22;8175;49.326;12.690;2022-09-09T14:44:08;21.80;99.90
16140;DHT22;8175;49.326;12.690;2022-09-09T14:46:35;21.70;99.90
16140;DHT22;8175;49.326;12.690;2022-09-09T14:49:01;21.00;99.90
16140;DHT22;8175;49.326;12.690;2022-09-09T14:51:27;20.50;99.90
16140;DHT22;8175;49.326;12.690;2022-09-09T14:53:58;21.00;99.90
16140;DHT22;8175;49.326;12.690;2022-09-09T14:56:27;20.80;99.90
16140;DHT22;8175;49.326;12.690;2022-09-09T14:58:54;20.70;99.90
16140;DHT22;8175;49.326;12.690;2022-09-09T15:01:21;21.40;99.90
16140;DHT22;8175;49.326;12.690;2022-09-09T15:03:53;21.70;99.90
16140;DHT22;8175;49.326;12.690;2022-09-09T15:06:20;21.30;99.90
16140;DHT22;8175;49.326;12.690;2022-09-09T15:08:46;20.30;99.90
16140;DHT22;8175;49.326;12.690;2022-09-09T15:11:14;19.90;99.90
16140;DHT22;8175;49.326;12.690;2022-09-09T15:13:41;20.20;99.90
16140;DHT22;8175;49.326;12.690;2022-09-09T15:16:10;20.20;99.90
16140;DHT22;8175;49.326;12.690;2022-09-09T15:18:36;19.80;99.90
16140;DHT22;8175;49.326;12.690;2022-09-09T15:21:03;19.70;99.90
16140;DHT22;8175;49.326;12.690;2022-09-09T15:23:34;20.20;99.90
16140;DHT22;8175;49.326;12.690;2022-09-09T15:26:00;21.20;99.90
16140;DHT22;8175;49.326;12.690;2022-09-09T15:28:26;21.60;99.90
16140;DHT22;8175;49.326;12.690;2022-09-09T15:30:53;21.30;99.90
16140;DHT22;8175;49.326;12.690;2022-09-09T15:33:21;20.60;99.90
16140;DHT22;8175;49.326;12.690;2022-09-09T15:35:47;20.20;99.90
16140;DHT22;8175;49.326;12.690;2022-09-09T15:38:13;20.60;99.90
16140;DHT22;8175;49.326;12.690;2022-09-09T15:40:42;20.80;99.90
16140;DHT22;8175;49.326;12.690;2022-09-09T15:43:09;20.80;99.90
16140;DHT22;8175;49.326;12.690;2022-09-09T15:45:36;20.70;99.90
16140;DHT22;8175;49.326;12.690;2022-09-09T15:48:03;20.60;99.90
16140;DHT22;8175;49.326;12.690;2022-09-09T15:50:29;20.20;99.90
16140;DHT22;8175;49.326;12.690;2022-09-09T15:52:56;19.70;99.90
16140;DHT22;8175;49.326;12.690;2022-09-09T15:55:22;19.30;99.90
16140;DHT22;8175;49.326;12.690;2022-09-09T15:57:49;18.80;99.90
16140;DHT22;8175;49.326;12.690;2022-09-09T16:00:17;18.50;99.90
16140;DHT22;8175;49.326;12.690;2022-09-09T16:02:43;18.30;99.90
16140;DHT22;8175;49.326;12.690;2022-09-09T16:05:09;18.10;99.90
16140;DHT22;8175;49.326;12.690;2022-09-09T16:07:35;18.00;99.90
16140;DHT22;8175;49.326;12.690;2022-09-09T16:10:01;17.70;99.90
16140;DHT22;8175;49.326;12.690;2022-09-09T16:12:27;17.60;99.90
16140;DHT22;8175;49.326;12.690;2022-09-09T16:14:53;17.50;99.90
16140;DHT22;8175;49.326;12.690;2022-09-09T16:17:18;17.40;99.90
16140;DHT22;8175;49.326;12.690;2022-09-09T16:19:46;17.40;99.90
16140;DHT22;8175;49.326;12.690;2022-09-09T16:22:11;17.30;99.90
16140;DHT22;8175;49.326;12.690;2022-09-09T16:24:37;17.30;99.90
16140;DHT22;8175;49.326;12.690;2022-09-09T16:27:03;17.30;99.90
16140;DHT22;8175;49.326;12.690;2022-09-09T16:29:29;17.20;99.90
16140;DHT22;8175;49.326;12.690;2022-09-09T16:31:55;17.20;99.90
16140;DHT22;8175;49.326;12.690;2022-09-09T16:34:21;17.10;99.90
16140;DHT22;8175;49.326;12.690;2022-09-09T16:36:48;17.10;99.90
16140;DHT22;8175;49.326;12.690;2022-09-09T16:39:18;17.10;99.90
16140;DHT22;8175;49.326;12.690;2022-09-09T16:41:45;17.10;99.90
16140;DHT22;8175;49.326;12.690;2022-09-09T16:44:14;17.00;99.90
16140;DHT22;8175;49.326;12.690;2022-09-09T16:46:41;16.90;99.90
16140;DHT22;8175;49.326;12.690;2022-09-09T16:49:10;16.90;99.90
16140;DHT22;8175;49.326;12.690;2022-09-09T16:51:38;16.90;99.90
16140;DHT22;8175;49.326;12.690;2022-09-09T16:54:06;16.90;99.90
16140;DHT22;8175;49.326;12.690;2022-09-09T16:56:34;16.80;99.90
16140;DHT22;8175;49.326;12.690;2022-09-09T16:59:10;16.80;99.90
16140;DHT22;8175;49.326;12.690;2022-09-09T17:01:38;16.70;99.90
16140;DHT22;8175;49.326;12.690;2022-09-09T17:04:08;16.50;99.90
16140;DHT22;8175;49.326;12.690;2022-09-09T17:06:35;16.30;99.90
16140;DHT22;8175;49.326;12.690;2022-09-09T17:09:06;16.10;99.90
16140;DHT22;8175;49.326;12.690;2022-09-09T17:11:32;15.90;99.90
16140;DHT22;8175;49.326;12.690;2022-09-09T17:13:58;15.60;99.90
16140;DHT22;8175;49.326;12.690;2022-09-09T17:16:27;15.50;99.90
16140;DHT22;8175;49.326;12.690;2022-09-09T17:18:54;15.40;99.90
16140;DHT22;8175;49.326;12.690;2022-09-09T17:21:22;15.30;99.90
16140;DHT22;8175;49.326;12.690;2022-09-09T17:23:49;15.10;99.90
16140;DHT22;8175;49.326;12.690;2022-09-09T17:26:17;15.10;99.90
16140;DHT22;8175;49.326;12.690;2022-09-09T17:28:43;15.10;99.90
16140;DHT22;8175;49.326;12.690;2022-09-09T17:31:12;15.00;99.90
16140;DHT22;8175;49.326;12.690;2022-09-09T17:33:40;14.90;99.90
16140;DHT22;8175;49.326;12.690;2022-09-09T17:36:14;15.00;99.90
16140;DHT22;8175;49.326;12.690;2022-09-09T17:38:40;14.90;99.90
16140;DHT22;8175;49.326;12.690;2022-09-09T17:41:12;14.60;99.90
16140;DHT22;8175;49.326;12.690;2022-09-09T17:43:38;14.20;99.90
16140;DHT22;8175;49.326;12.690;2022-09-09T17:46:09;14.00;99.90
16140;DHT22;8175;49.326;12.690;2022-09-09T17:48:35;13.80;99.90
16140;DHT22;8175;49.326;12.690;2022-09-09T17:51:06;13.60;99.90
16140;DHT22;8175;49.326;12.690;2022-09-09T17:53:38;13.40;99.90
16140;DHT22;8175;49.326;12.690;2022-09-09T17:56:06;13.30;99.90
16140;DHT22;8175;49.326;12.690;2022-09-09T17:58:32;13.20;99.90
16140;DHT22;8175;49.326;12.690;2022-09-09T18:01:14;13.20;99.90
16140;DHT22;8175;49.326;12.690;2022-09-09T18:03:41;13.20;99.90
16140;DHT22;8175;49.326;12.690;2022-09-09T18:06:17;12.90;99.90
16140;DHT22;8175;49.326;12.690;2022-09-09T18:08:47;12.50;99.90
16140;DHT22;8175;49.326;12.690;2022-09-09T18:11:13;12.30;99.90
16140;DHT22;8175;49.326;12.690;2022-09-09T18:13:39;12.10;99.90